createdAt,value
2022-11-06T00:00:04.664Z,4.69
2022-11-06T00:04:05.983Z,4.70
2022-11-06T00:08:07.368Z,4.62
2022-11-06T00:12:08.651Z,4.64
2022-11-06T00:16:11.330Z,4.64
2022-11-06T00:20:12.603Z,4.63
2022-11-06T00:24:14.820Z,4.55
2022-11-06T00:28:16.487Z,4.50
2022-11-06T00:36:30.526Z,4.60
2022-11-06T00:40:32.119Z,4.64
2022-11-06T00:44:33.412Z,4.63
2022-11-06T00:48:35.214Z,4.62
2022-11-06T00:52:36.470Z,4.53
2022-11-06T00:56:37.721Z,4.54
2022-11-06T01:00:39.065Z,4.50
2022-11-06T01:04:40.343Z,4.45
2022-11-06T01:08:42.522Z,4.43
2022-11-06T01:12:43.951Z,4.41
2022-11-06T01:16:45.316Z,4.36
2022-11-06T01:20:46.575Z,4.37
2022-11-06T01:24:48.131Z,4.33
2022-11-06T01:28:49.829Z,4.32
2022-11-06T01:32:51.467Z,4.28
2022-11-06T01:36:52.816Z,4.29
2022-11-06T01:40:54.471Z,4.28
2022-11-06T01:45:07.673Z,4.24
2022-11-06T01:49:15.127Z,4.25
2022-11-06T01:53:16.895Z,4.28
2022-11-06T01:57:19.552Z,4.29
2022-11-06T02:01:21.220Z,4.23
2022-11-06T02:05:23.863Z,4.20
2022-11-06T02:09:25.699Z,4.21
2022-11-06T02:13:45.910Z,4.15
2022-11-06T02:17:47.109Z,4.11
2022-11-06T02:22:01.124Z,4.12
2022-11-06T02:26:11.455Z,4.10
2022-11-06T02:30:14.248Z,4.06
2022-11-06T02:34:17.578Z,4.05
2022-11-06T02:38:22.854Z,3.97
2022-11-06T02:42:26.594Z,3.95
2022-11-06T02:46:42.962Z,3.93
2022-11-06T02:50:46.393Z,3.90
2022-11-06T02:54:50.773Z,3.86
2022-11-06T02:58:54.171Z,3.77
2022-11-06T03:02:58.140Z,3.75
2022-11-06T03:07:03.588Z,3.70
2022-11-06T03:11:13.183Z,3.66
2022-11-06T03:15:27.794Z,3.64
2022-11-06T03:19:42.631Z,3.56
2022-11-06T03:23:49.085Z,3.50
2022-11-06T03:27:55.379Z,3.48
2022-11-06T03:32:05.388Z,3.42
2022-11-06T03:36:27.198Z,3.46
2022-11-06T03:40:32.043Z,3.46
2022-11-06T03:44:36.176Z,3.44
2022-11-06T03:48:40.276Z,3.41
2022-11-06T03:52:44.358Z,3.35
2022-11-06T03:56:48.562Z,3.33
2022-11-06T04:00:51.074Z,3.34
2022-11-06T04:04:56.579Z,3.38
2022-11-06T04:09:18.547Z,3.38
2022-11-06T04:13:40.033Z,3.33
2022-11-06T04:17:41.931Z,3.29
2022-11-06T04:21:53.540Z,3.18
2022-11-06T04:26:20.496Z,3.15
2022-11-06T04:30:21.834Z,3.17
2022-11-06T04:34:36.658Z,3.13
2022-11-06T04:38:53.791Z,3.11
2022-11-06T04:43:28.539Z,3.02
2022-11-06T04:47:29.830Z,3.01
2022-11-06T04:51:33.479Z,2.92
2022-11-06T04:55:38.569Z,2.90
2022-11-06T04:59:39.849Z,2.86
2022-11-06T05:03:41.083Z,2.80
2022-11-06T05:07:42.338Z,2.81
2022-11-06T05:11:43.752Z,2.79
2022-11-06T05:15:45.046Z,2.70
2022-11-06T05:19:46.283Z,2.59
2022-11-06T05:23:47.998Z,2.50
2022-11-06T05:27:49.466Z,2.51
2022-11-06T05:31:50.811Z,2.47
2022-11-06T05:35:52.735Z,2.49
2022-11-06T05:39:54.078Z,2.49
2022-11-06T05:43:55.321Z,2.42
2022-11-06T05:47:56.683Z,2.36
2022-11-06T05:51:58.174Z,2.34
2022-11-06T05:55:59.662Z,2.23
2022-11-06T06:00:01.023Z,2.23
2022-11-06T06:04:02.323Z,2.22
2022-11-06T06:08:04.131Z,2.16
2022-11-06T06:12:05.726Z,2.10
2022-11-06T06:16:07.184Z,2.10
2022-11-06T06:20:08.790Z,2.10
2022-11-06T06:24:10.188Z,2.07
2022-11-06T06:28:11.792Z,2.11
2022-11-06T06:32:13.268Z,1.98
2022-11-06T06:36:14.556Z,1.93
2022-11-06T06:40:15.862Z,2.03
2022-11-06T06:44:17.147Z,2.08
2022-11-06T06:48:18.406Z,2.16
2022-11-06T06:52:19.716Z,2.21
2022-11-06T06:56:21.279Z,2.27
2022-11-06T07:00:22.571Z,2.31
2022-11-06T07:04:23.932Z,2.40
2022-11-06T07:08:28.427Z,2.46
2022-11-06T07:12:30.892Z,2.56
2022-11-06T07:16:32.505Z,2.66
2022-11-06T07:20:34.504Z,2.79
2022-11-06T07:24:35.912Z,2.92
2022-11-06T07:28:37.227Z,3.07
2022-11-06T07:32:39.086Z,3.17
2022-11-06T07:36:40.439Z,3.29
2022-11-06T07:40:42.216Z,3.27
2022-11-06T07:44:43.503Z,3.37
2022-11-06T07:48:44.810Z,3.64
2022-11-06T07:52:46.050Z,3.85
2022-11-06T07:56:47.411Z,4.04
2022-11-06T08:00:49.318Z,4.22
2022-11-06T08:04:50.630Z,4.48
2022-11-06T08:08:57.691Z,4.77
2022-11-06T08:13:00.938Z,5.12
2022-11-06T08:17:02.183Z,5.52
2022-11-06T08:21:03.964Z,5.93
2022-11-06T08:25:05.575Z,6.35
2022-11-06T08:29:06.823Z,6.55
2022-11-06T08:33:08.194Z,6.81
2022-11-06T08:37:10.226Z,7.17
2022-11-06T08:41:12.111Z,7.55
2022-11-06T08:45:13.552Z,7.88
2022-11-06T08:49:14.956Z,8.15
2022-11-06T08:53:16.648Z,8.38
2022-11-06T08:57:18.309Z,8.39
2022-11-06T09:01:20.089Z,8.54
2022-11-06T09:05:21.503Z,8.50
2022-11-06T09:09:22.959Z,8.67
2022-11-06T09:13:24.453Z,8.85
2022-11-06T09:17:26.001Z,9.02
2022-11-06T09:21:27.272Z,9.18
2022-11-06T09:25:29.696Z,9.25
2022-11-06T09:29:31.240Z,9.28
2022-11-06T09:33:32.890Z,9.23
2022-11-06T09:37:34.165Z,9.27
2022-11-06T09:41:41.750Z,9.35
2022-11-06T09:45:43.596Z,9.50
2022-11-06T09:49:50.235Z,9.58
2022-11-06T09:53:56.831Z,9.66
2022-11-06T09:58:04.856Z,9.76
2022-11-06T10:02:19.181Z,9.81
2022-11-06T10:06:22.524Z,9.80
2022-11-06T10:10:29.142Z,9.95
2022-11-06T10:14:36.416Z,10.00
2022-11-06T10:18:51.958Z,9.96
2022-11-06T10:23:13.161Z,9.99
2022-11-06T10:27:14.618Z,9.99
2022-11-06T10:31:15.862Z,9.98
2022-11-06T10:35:40.015Z,10.04
2022-11-06T10:39:41.701Z,10.08
2022-11-06T10:43:47.954Z,10.14
2022-11-06T10:47:55.295Z,10.18
2022-11-06T10:52:11.106Z,10.23
2022-11-06T10:56:32.738Z,10.25
2022-11-06T11:00:34.452Z,10.26
2022-11-06T11:04:36.131Z,10.31
2022-11-06T11:08:40.491Z,10.39
2022-11-06T11:12:45.461Z,10.49
2022-11-06T11:16:46.966Z,10.54
2022-11-06T11:20:49.516Z,10.58
2022-11-06T11:25:00.719Z,10.61
2022-11-06T11:29:11.684Z,10.67
2022-11-06T11:33:13.464Z,10.76
2022-11-06T11:37:31.306Z,10.82
2022-11-06T11:41:32.617Z,10.93
2022-11-06T11:45:33.872Z,10.95
2022-11-06T11:49:35.132Z,10.94
2022-11-06T11:53:38.422Z,10.95
2022-11-06T11:57:42.615Z,10.93
2022-11-06T12:01:44.794Z,10.94
2022-11-06T12:05:46.138Z,10.86
2022-11-06T12:09:47.559Z,10.86
2022-11-06T12:14:07.803Z,10.82
2022-11-06T12:18:15.160Z,10.65
2022-11-06T12:22:37.779Z,10.60
2022-11-06T12:26:39.094Z,10.48
2022-11-06T12:30:41.609Z,10.35
2022-11-06T12:35:02.035Z,10.22
2022-11-06T12:39:09.763Z,10.16
2022-11-06T12:43:31.914Z,10.14
2022-11-06T12:47:39.501Z,10.14
2022-11-06T12:52:04.695Z,10.12
2022-11-06T12:56:15.371Z,10.14
2022-11-06T13:00:19.105Z,10.21
2022-11-06T13:04:31.151Z,10.25
2022-11-06T13:08:42.775Z,10.27
2022-11-06T13:12:54.293Z,10.15
2022-11-06T13:17:04.094Z,10.05
2022-11-06T13:21:11.695Z,10.01
2022-11-06T13:25:17.691Z,9.99
2022-11-06T13:29:19.519Z,9.98
2022-11-06T13:33:24.939Z,9.98
2022-11-06T13:37:38.592Z,10.02
2022-11-06T13:41:40.317Z,9.99
2022-11-06T13:45:47.675Z,9.92
2022-11-06T13:49:49.316Z,9.88
2022-11-06T13:53:59.813Z,9.90
2022-11-06T13:58:02.130Z,9.88
2022-11-06T14:02:22.131Z,9.81
2022-11-06T14:06:25.039Z,9.72
2022-11-06T14:10:31.209Z,9.69
2022-11-06T14:14:33.908Z,9.59
2022-11-06T14:18:35.414Z,9.57
2022-11-06T14:22:37.809Z,9.52
2022-11-06T14:26:45.206Z,9.41
2022-11-06T14:35:26.596Z,9.27
2022-11-06T14:39:46.704Z,9.26
2022-11-06T14:43:50.541Z,9.20
2022-11-06T14:47:56.566Z,9.17
2022-11-06T14:51:59.903Z,9.16
2022-11-06T14:56:06.255Z,9.14
2022-11-06T15:00:08.109Z,9.08
2022-11-06T15:04:19.983Z,9.06
2022-11-06T15:08:40.179Z,9.00
2022-11-06T15:13:00.333Z,8.95
2022-11-06T15:17:06.732Z,8.93
2022-11-06T15:21:10.576Z,8.93
2022-11-06T15:25:27.362Z,8.94
2022-11-06T15:29:32.010Z,8.92
2022-11-06T15:33:57.111Z,8.89
2022-11-06T15:38:04.805Z,8.84
2022-11-06T15:42:13.638Z,8.82
2022-11-06T15:46:14.944Z,8.78
2022-11-06T15:50:17.644Z,8.75
2022-11-06T15:54:39.056Z,8.71
2022-11-06T15:58:40.370Z,8.67
2022-11-06T16:02:48.716Z,8.66
2022-11-06T16:06:51.636Z,8.63
2022-11-06T16:10:54.540Z,8.56
2022-11-06T16:14:55.812Z,8.52
2022-11-06T16:18:57.447Z,8.51
2022-11-06T16:23:03.285Z,8.45
2022-11-06T16:27:05.560Z,8.49
2022-11-06T16:31:10.209Z,8.43
2022-11-06T16:35:30.515Z,8.40
2022-11-06T16:39:50.835Z,8.40
2022-11-06T16:44:12.528Z,8.41
2022-11-06T16:48:24.529Z,8.42
2022-11-06T16:52:34.154Z,8.43
2022-11-06T16:56:35.743Z,8.39
2022-11-06T17:00:37.094Z,8.38
2022-11-06T17:04:38.350Z,8.38
2022-11-06T17:08:41.025Z,8.39
2022-11-06T17:12:42.322Z,8.40
2022-11-06T17:16:50.493Z,8.40
2022-11-06T17:20:59.023Z,8.39
2022-11-06T17:25:00.394Z,8.39
2022-11-06T17:29:01.742Z,8.41
2022-11-06T17:33:03.062Z,8.41
2022-11-06T17:37:04.368Z,8.40
2022-11-06T17:41:05.804Z,8.39
2022-11-06T17:45:07.249Z,8.37
2022-11-06T17:49:14.274Z,8.39
2022-11-06T17:53:18.313Z,8.37
2022-11-06T17:57:23.890Z,8.38
2022-11-06T18:01:25.698Z,8.37
2022-11-06T18:05:27.012Z,8.38
2022-11-06T18:09:28.511Z,8.40
2022-11-06T18:13:30.503Z,8.41
2022-11-06T18:17:32.661Z,8.42
2022-11-06T18:21:34.578Z,8.43
2022-11-06T18:25:35.925Z,8.43
2022-11-06T18:29:37.450Z,8.45
2022-11-06T18:33:38.766Z,8.48
2022-11-06T18:37:40.194Z,8.53
2022-11-06T18:41:41.657Z,8.56
2022-11-06T18:45:43.003Z,8.60
2022-11-06T18:49:44.351Z,8.60
2022-11-06T18:53:45.660Z,8.62
2022-11-06T18:57:47.137Z,8.66
2022-11-06T19:01:48.982Z,8.69
2022-11-06T19:05:51.131Z,8.71
2022-11-06T19:09:52.904Z,8.71
2022-11-06T19:13:54.376Z,8.71
2022-11-06T19:17:55.688Z,8.71
2022-11-06T19:21:57.085Z,8.72
2022-11-06T19:26:17.492Z,8.69
2022-11-06T19:30:20.045Z,8.66
2022-11-06T19:34:25.413Z,8.62
2022-11-06T19:38:26.798Z,8.56
2022-11-06T19:42:28.212Z,8.52
2022-11-06T19:46:35.203Z,8.43
2022-11-06T19:50:58.774Z,8.42
2022-11-06T19:55:25.125Z,8.42
2022-11-06T19:59:21.557Z,8.46
2022-11-06T20:03:23.060Z,8.49
2022-11-06T20:07:26.440Z,8.49
2022-11-06T20:11:27.771Z,8.48
2022-11-06T20:15:29.897Z,8.50
2022-11-06T20:19:31.280Z,8.49
2022-11-06T20:23:33.283Z,8.51
2022-11-06T20:27:34.547Z,8.52
2022-11-06T20:31:35.880Z,8.55
2022-11-06T20:35:38.119Z,8.59
2022-11-06T20:39:41.469Z,8.59
2022-11-06T20:43:43.202Z,8.61
2022-11-06T20:47:44.612Z,8.63
2022-11-06T20:52:12.036Z,8.64
2022-11-06T20:56:09.348Z,8.69
2022-11-06T21:00:13.109Z,8.73
2022-11-06T21:04:20.419Z,8.78
2022-11-06T21:08:22.165Z,8.84
2022-11-06T21:16:26.266Z,8.94
2022-11-06T21:20:27.627Z,8.98
2022-11-06T21:24:29.334Z,9.05
2022-11-06T21:28:47.196Z,9.11
2022-11-06T21:32:49.800Z,9.17
2022-11-06T21:36:51.230Z,9.22
2022-11-06T21:40:52.643Z,9.28
2022-11-06T21:44:54.149Z,9.31
2022-11-06T21:48:56.807Z,9.35
2022-11-06T21:53:17.298Z,9.34
2022-11-06T21:57:18.694Z,9.35
2022-11-06T22:01:20.596Z,9.36
2022-11-06T22:05:22.464Z,9.39
2022-11-06T22:09:25.873Z,9.41
2022-11-06T22:13:29.101Z,9.41
2022-11-06T22:17:31.404Z,9.42
2022-11-06T22:21:33.551Z,9.43
2022-11-06T22:25:39.321Z,9.42
2022-11-06T22:29:40.603Z,9.43
2022-11-06T22:33:41.941Z,9.43
2022-11-06T22:37:43.204Z,9.44
2022-11-06T22:41:44.849Z,9.44
2022-11-06T22:45:46.588Z,9.45
2022-11-06T22:49:50.202Z,9.44
2022-11-06T22:53:53.018Z,9.44
2022-11-06T22:57:54.320Z,9.45
2022-11-06T23:01:55.646Z,9.50
2022-11-06T23:05:58.186Z,9.54
2022-11-06T23:09:59.546Z,9.56
2022-11-06T23:14:07.475Z,9.60
2022-11-06T23:18:10.074Z,9.64
2022-11-06T23:22:34.695Z,9.66
2022-11-06T23:26:36.284Z,9.69
2022-11-06T23:30:37.732Z,9.75
2022-11-06T23:34:39.041Z,9.79
2022-11-06T23:38:40.866Z,9.85
2022-11-06T23:42:43.224Z,9.88
2022-11-06T23:46:44.508Z,9.93
2022-11-06T23:50:46.840Z,9.96
2022-11-06T23:54:48.246Z,9.99
2022-11-06T23:58:49.540Z,10.02
